Time;durP1;ratioP1;P1;durP2;ratioP2;P2;SDS_P1;SDS_P2;PMS_P1;PMS_P2;Temp;Humidity;BMP_temperature;BMP_pressure;BME280_temperature;BME280_humidity;BME280_pressure;Samples;Min_cycle;Max_cycle;Signal;HPM_P1;HPM_P2
2021/09/07 00:01:30;;;;;;;2.78;2.55;;;;;;;6.91;80.67;100701.00;5068038;28;20037;-71
2021/09/07 00:03:56;;;;;;;1.58;1.48;;;;;;;6.88;80.61;100701.09;5068749;28;20101;-71
2021/09/07 00:06:23;;;;;;;1.90;1.80;;;;;;;6.94;80.87;100708.72;5051380;28;20041;-71
2021/09/07 00:08:48;;;;;;;2.38;2.17;;;;;;;6.92;80.79;100697.53;5069435;28;20048;-71
2021/09/07 00:11:16;;;;;;;4.13;2.13;;;;;;;6.94;81.32;100698.34;5068016;28;20144;-72
2021/09/07 00:13:44;;;;;;;3.55;2.28;;;;;;;6.98;80.97;100696.50;5069545;28;20110;-71
2021/09/07 00:16:12;;;;;;;1.73;1.63;;;;;;;7.01;80.65;100699.03;5069277;28;20048;-71
2021/09/07 00:18:38;;;;;;;1.15;1.15;;;;;;;7.05;80.73;100693.72;5069259;28;20072;-71
2021/09/07 00:21:04;;;;;;;2.22;2.13;;;;;;;7.06;80.42;100700.63;5069251;28;20547;-71
2021/09/07 00:23:29;;;;;;;1.75;1.67;;;;;;;7.12;80.29;100699.59;5069061;28;20040;-71
2021/09/07 00:25:56;;;;;;;1.08;1.08;;;;;;;7.08;79.94;100693.63;5051437;28;20048;-72
2021/09/07 00:28:21;;;;;;;1.20;1.20;;;;;;;7.09;79.92;100689.28;5069062;28;20513;-71
2021/09/07 00:30:47;;;;;;;1.70;1.70;;;;;;;7.09;79.92;100684.97;5051070;28;20111;-72
2021/09/07 00:33:33;;;;;;;2.83;2.42;;;;;;;7.17;80.05;100698.56;5054384;28;20049;-71
2021/09/07 00:36:19;;;;;;;1.30;1.30;;;;;;;7.20;80.26;100688.09;5068839;28;20053;-70
2021/09/07 00:39:05;;;;;;;2.67;1.60;;;;;;;7.20;79.96;100690.69;5069239;28;20051;-71
2021/09/07 00:41:50;;;;;;;1.90;1.80;;;;;;;7.21;80.60;100692.41;5068162;28;20179;-71
2021/09/07 00:44:36;;;;;;;1.55;1.45;;;;;;;7.22;79.82;100696.72;5069258;28;20051;-71
2021/09/07 00:47:22;;;;;;;1.35;1.35;;;;;;;7.14;80.20;100683.06;5068877;28;20048;-71
2021/09/07 00:50:08;;;;;;;5.75;2.17;;;;;;;7.21;80.96;100687.22;5040336;28;20506;-72
2021/09/07 00:52:55;;;;;;;1.33;1.33;;;;;;;7.17;80.97;100690.78;5069266;28;20050;-71
2021/09/07 00:55:42;;;;;;;2.05;1.95;;;;;;;7.15;81.16;100689.97;5040412;28;20146;-70
2021/09/07 00:58:30;;;;;;;1.77;1.77;;;;;;;7.12;81.49;100694.41;5054241;28;20056;-73
2021/09/07 01:01:15;;;;;;;1.63;1.48;;;;;;;7.09;81.46;100687.56;5068767;28;20057;-72
2021/09/07 01:04:01;;;;;;;1.92;1.83;;;;;;;7.09;81.54;100689.28;5068963;28;20142;-72
2021/09/07 01:06:49;;;;;;;1.75;1.70;;;;;;;7.13;81.65;100686.56;5068863;28;20048;-73
2021/09/07 01:09:36;;;;;;;1.67;1.67;;;;;;;7.15;81.63;100689.13;5054070;28;20067;-73
2021/09/07 01:12:24;;;;;;;1.80;1.73;;;;;;;7.19;81.51;100685.56;5054218;28;20513;-72
2021/09/07 01:15:11;;;;;;;2.13;1.08;;;;;;;7.25;81.49;100695.78;5056657;28;20052;-72
2021/09/07 01:17:57;;;;;;;2.38;2.28;;;;;;;7.24;81.19;100692.31;5072788;28;20055;-72
2021/09/07 01:20:43;;;;;;;1.10;1.10;;;;;;;7.16;81.85;100683.03;5072513;28;20110;-72
2021/09/07 01:23:29;;;;;;;3.40;1.92;;;;;;;7.21;81.59;100684.63;5071518;28;20056;-72
2021/09/07 01:26:16;;;;;;;0.65;0.65;;;;;;;7.26;81.65;100687.91;5072488;28;20131;-72
2021/09/07 01:29:04;;;;;;;1.48;1.48;;;;;;;7.32;81.53;100684.31;5076409;28;20283;-71
2021/09/07 01:31:49;;;;;;;1.63;1.35;;;;;;;7.33;81.42;100683.41;5048871;28;20130;-73
2021/09/07 01:34:37;;;;;;;13.25;1.30;;;;;;;7.32;81.66;100686.91;5075396;28;20486;-72
2021/09/07 01:37:23;;;;;;;1.63;1.52;;;;;;;7.32;81.95;100681.72;5058739;28;20230;-72
2021/09/07 01:40:09;;;;;;;1.33;1.33;;;;;;;7.35;81.68;100673.84;5072383;28;20059;-72
2021/09/07 01:42:55;;;;;;;1.42;1.20;;;;;;;7.32;81.78;100679.97;5072102;28;20049;-70
2021/09/07 01:45:40;;;;;;;7.15;0.80;;;;;;;7.33;81.34;100667.81;5071904;28;20052;-71
2021/09/07 01:48:26;;;;;;;1.98;1.88;;;;;;;7.32;81.74;100666.13;5056990;28;20498;-70
2021/09/07 01:51:12;;;;;;;0.90;0.90;;;;;;;7.31;81.87;100670.47;5057096;28;20048;-74
2021/09/07 01:53:58;;;;;;;1.50;1.50;;;;;;;7.33;81.29;100663.47;5072053;28;20538;-70
2021/09/07 01:56:44;;;;;;;1.05;1.05;;;;;;;7.37;80.77;100663.38;5071911;28;20120;-71
2021/09/07 01:59:31;;;;;;;1.45;1.45;;;;;;;7.33;80.71;100647.91;5071634;28;20525;-72
2021/09/07 02:02:16;;;;;;;1.35;1.35;;;;;;;7.38;80.72;100649.53;5056730;28;20063;-74
2021/09/07 02:05:03;;;;;;;10.93;3.10;;;;;;;7.37;80.71;100647.81;5071793;28;20114;-73
2021/09/07 02:07:49;;;;;;;1.77;1.60;;;;;;;7.34;80.58;100644.41;5071543;28;20557;-73
2021/09/07 02:10:35;;;;;;;14.48;2.13;;;;;;;7.39;80.46;100656.44;5071339;28;20055;-74
2021/09/07 02:13:21;;;;;;;1.23;1.13;;;;;;;7.43;80.03;100650.25;5071240;28;20045;-74
2021/09/07 02:16:07;;;;;;;0.95;0.95;;;;;;;7.44;79.71;100647.59;5071492;28;20417;-72
2021/09/07 02:18:55;;;;;;;1.42;1.38;;;;;;;7.46;79.54;100655.34;5071540;28;20055;-73
2021/09/07 02:21:41;;;;;;;1.58;1.55;;;;;;;7.45;79.72;100648.44;5071336;28;20045;-72
2021/09/07 02:24:28;;;;;;;1.05;1.05;;;;;;;7.49;79.20;100650.94;5071251;28;20049;-71
2021/09/07 02:27:15;;;;;;;1.75;1.52;;;;;;;7.49;79.53;100643.13;5070115;28;20049;-72
2021/09/07 02:30:01;;;;;;;1.55;1.50;;;;;;;7.51;79.43;100641.31;5071159;28;20533;-71
2021/09/07 02:32:47;;;;;;;1.92;1.83;;;;;;;7.54;79.43;100650.78;5071055;28;20485;-73
2021/09/07 02:35:34;;;;;;;0.63;0.63;;;;;;;7.53;79.67;100641.25;5070585;28;20206;-72
2021/09/07 02:38:20;;;;;;;0.50;0.50;;;;;;;7.53;79.67;100643.88;5070877;28;20071;-73
2021/09/07 02:41:07;;;;;;;7.65;1.33;;;;;;;7.48;79.68;100635.38;5069563;28;20067;-72
2021/09/07 02:43:53;;;;;;;1.67;1.63;;;;;;;7.56;79.78;100651.59;5052357;28;20570;-70
2021/09/07 02:46:39;;;;;;;2.83;1.33;;;;;;;7.58;79.10;100642.84;5070520;28;20576;-70
2021/09/07 02:49:25;;;;;;;4.30;1.67;;;;;;;7.55;79.09;100640.34;5070374;28;20588;-71
2021/09/07 02:52:12;;;;;;;1.30;1.20;;;;;;;7.59;79.07;100649.72;5070899;28;20514;-72
2021/09/07 02:54:59;;;;;;;1.77;0.75;;;;;;;7.58;79.00;100647.19;5069270;28;20048;-72
2021/09/07 02:57:46;;;;;;;1.13;1.13;;;;;;;7.59;79.03;100648.91;5068834;28;20147;-76
2021/09/07 03:00:32;;;;;;;15.38;1.98;;;;;;;7.60;78.96;100651.44;5058226;28;20051;-85
2021/09/07 03:03:18;;;;;;;1.67;0.93;;;;;;;7.61;79.11;100647.94;5061473;28;20405;-84
2021/09/07 03:06:05;;;;;;;2.35;1.70;;;;;;;7.62;79.12;100638.41;5057948;28;20056;-82
2021/09/07 03:08:51;;;;;;;0.80;0.80;;;;;;;7.59;78.96;100633.31;5076954;28;20509;-82
2021/09/07 03:11:38;;;;;;;0.82;0.82;;;;;;;7.65;78.91;100643.50;5075098;28;20481;-81
2021/09/07 03:14:24;;;;;;;1.00;1.00;;;;;;;7.65;79.11;100638.31;5057907;28;20049;-79
2021/09/07 03:17:10;;;;;;;18.83;1.60;;;;;;;7.69;78.69;100639.94;5072211;28;20079;-81
2021/09/07 03:19:56;;;;;;;1.80;1.65;;;;;;;7.68;78.57;100627.81;5070678;28;20588;-79
2021/09/07 03:22:42;;;;;;;1.30;1.20;;;;;;;7.81;79.13;100639.56;5056429;28;20454;-81
2021/09/07 03:25:30;;;;;;;4.03;2.00;;;;;;;7.84;78.67;100640.31;5068935;28;20387;-81
2021/09/07 03:28:16;;;;;;;0.65;0.65;;;;;;;7.89;78.78;100632.34;5046465;28;20068;-83
2021/09/07 03:31:02;;;;;;;2.17;1.42;;;;;;;7.81;79.00;100643.00;5074725;28;20052;-84
2021/09/07 03:33:49;;;;;;;1.48;1.48;;;;;;;7.86;79.07;100646.28;5081239;28;20041;-83
2021/09/07 03:36:35;;;;;;;8.35;1.55;;;;;;;7.82;79.11;100652.47;5073885;28;20086;-83
2021/09/07 03:39:20;;;;;;;0.90;0.90;;;;;;;7.85;78.48;100647.19;5054073;28;20056;-83
2021/09/07 03:42:08;;;;;;;3.75;1.67;;;;;;;7.83;79.10;100649.00;5086132;28;20100;-85
2021/09/07 03:44:54;;;;;;;1.25;1.25;;;;;;;7.83;79.61;100643.78;5086284;28;20048;-85
2021/09/07 03:47:41;;;;;;;1.13;1.13;;;;;;;7.78;79.75;100650.03;5083251;28;20053;-83
2021/09/07 03:50:28;;;;;;;1.63;1.55;;;;;;;7.84;79.38;100645.50;5073456;28;20060;-83
2021/09/07 03:53:17;;;;;;;1.85;1.75;;;;;;;7.86;79.80;100648.91;5070795;28;20080;-82
2021/09/07 03:56:05;;;;;;;1.48;1.38;;;;;;;7.88;79.74;100646.25;5045768;28;20052;-81
2021/09/07 03:58:50;;;;;;;1.35;1.35;;;;;;;7.87;79.66;100644.56;5037252;28;20502;-81
2021/09/07 04:01:37;;;;;;;1.65;1.42;;;;;;;7.85;79.81;100638.56;5062594;28;20059;-83
2021/09/07 04:04:25;;;;;;;0.77;0.77;;;;;;;7.89;80.03;100658.34;5035968;28;20057;-81
2021/09/07 04:07:13;;;;;;;1.38;1.27;;;;;;;7.87;80.12;100649.75;5041323;28;20138;-83
2021/09/07 04:10:00;;;;;;;1.35;1.35;;;;;;;7.85;80.55;100651.56;5068737;28;20139;-80
2021/09/07 04:12:46;;;;;;;0.90;0.90;;;;;;;7.89;80.43;100653.16;5069473;28;20036;-79
2021/09/07 04:15:34;;;;;;;1.80;1.35;;;;;;;7.91;80.28;100651.38;5054664;28;20067;-79
2021/09/07 04:18:22;;;;;;;7.57;1.35;;;;;;;7.91;80.99;100645.31;5068446;28;20641;-80
2021/09/07 04:21:11;;;;;;;3.08;2.90;;;;;;;7.88;80.79;100641.06;5067427;28;20083;-80
2021/09/07 04:23:57;;;;;;;1.50;1.45;;;;;;;7.93;80.97;100641.75;5068866;28;20047;-81
2021/09/07 04:26:43;;;;;;;1.63;1.25;;;;;;;8.05;80.15;100646.56;5050879;28;20056;-78
2021/09/07 04:29:29;;;;;;;0.85;0.85;;;;;;;8.03;80.42;100645.78;5068018;28;20044;-79
2021/09/07 04:32:14;;;;;;;1.77;1.10;;;;;;;8.12;80.37;100645.47;5069336;28;20135;-80
2021/09/07 04:35:01;;;;;;;1.65;1.55;;;;;;;8.22;80.93;100633.88;5040257;28;20128;-79
2021/09/07 04:37:47;;;;;;;1.38;1.38;;;;;;;8.26;80.58;100630.28;5053691;28;20146;-79
2021/09/07 04:40:33;;;;;;;0.75;0.75;;;;;;;8.26;80.07;100640.69;5054180;28;20143;-81
2021/09/07 04:43:19;;;;;;;3.10;2.83;;;;;;;8.26;79.65;100632.88;5071451;28;20066;-82
2021/09/07 04:46:04;;;;;;;1.33;0.98;;;;;;;8.42;79.92;100645.41;5071174;28;20052;-83
2021/09/07 04:48:31;;;;;;;7.32;1.10;;;;;;;8.36;79.28;100643.88;5052704;28;20373;-83
2021/09/07 04:50:57;;;;;;;1.88;1.88;;;;;;;8.35;79.82;100648.22;5075300;28;20071;-83
2021/09/07 04:53:23;;;;;;;0.82;0.82;;;;;;;8.47;79.79;100652.19;5060612;28;20044;-82
2021/09/07 04:55:49;;;;;;;1.80;1.67;;;;;;;8.47;78.44;100640.91;5076059;28;20044;-83
2021/09/07 04:58:16;;;;;;;0.88;0.88;;;;;;;8.60;78.77;100647.41;5095029;28;20055;-83
2021/09/07 05:00:42;;;;;;;1.33;1.20;;;;;;;8.67;78.69;100648.91;5070590;28;20048;-82
2021/09/07 05:03:08;;;;;;;0.80;0.80;;;;;;;8.69;77.75;100647.94;5082285;28;20045;-82
2021/09/07 05:05:34;;;;;;;1.00;1.00;;;;;;;8.79;77.67;100649.31;5031845;28;20527;-82
2021/09/07 05:08:00;;;;;;;0.88;0.88;;;;;;;8.83;77.12;100644.88;5063337;28;20041;-83
2021/09/07 05:10:27;;;;;;;1.27;1.27;;;;;;;9.01;76.56;100645.94;5082326;28;20056;-81
2021/09/07 05:12:53;;;;;;;0.70;0.70;;;;;;;8.95;75.80;100641.81;5074683;28;20055;-80
2021/09/07 05:15:19;;;;;;;0.98;0.98;;;;;;;9.16;76.05;100630.59;5055892;28;20519;-84
2021/09/07 05:17:45;;;;;;;1.23;1.00;;;;;;;9.08;75.13;100644.81;5055914;28;20045;-81
2021/09/07 05:20:11;;;;;;;1.35;1.15;;;;;;;9.00;75.57;100636.47;5073321;28;20076;-81
2021/09/07 05:22:38;;;;;;;0.95;0.95;;;;;;;9.03;75.89;100637.16;5038441;28;20040;-80
2021/09/07 05:25:05;;;;;;;3.58;1.80;;;;;;;9.10;75.20;100624.78;5038228;28;20725;-79
2021/09/07 05:27:35;;;;;;;1.42;1.33;;;;;;;9.12;75.82;100634.25;5055060;28;20045;-82
2021/09/07 05:30:03;;;;;;;0.98;0.93;;;;;;;9.20;74.71;100628.75;5072682;28;20053;-81
2021/09/07 05:32:30;;;;;;;1.73;1.63;;;;;;;9.16;75.22;100635.00;5054243;28;20107;-81
2021/09/07 05:34:55;;;;;;;2.05;1.38;;;;;;;9.32;75.14;100642.19;5053921;28;20418;-81
2021/09/07 05:37:21;;;;;;;2.63;0.90;;;;;;;9.34;74.43;100632.56;5021841;28;20049;-81
2021/09/07 05:39:48;;;;;;;3.78;1.10;;;;;;;9.55;75.00;100632.66;5037822;28;20553;-81
2021/09/07 05:42:14;;;;;;;2.28;0.90;;;;;;;9.49;73.48;100630.28;5072633;28;20056;-81
2021/09/07 05:44:41;;;;;;;0.90;0.90;;;;;;;9.39;74.16;100622.78;5054691;28;20040;-82
2021/09/07 05:47:07;;;;;;;1.00;0.88;;;;;;;9.62;72.59;100637.56;5055008;28;20052;-82
2021/09/07 05:49:33;;;;;;;2.38;0.98;;;;;;;9.93;71.63;100637.22;5063337;28;20095;-81
2021/09/07 05:51:59;;;;;;;0.90;0.90;;;;;;;10.00;71.06;100630.84;5084108;28;20051;-82
2021/09/07 05:54:25;;;;;;;1.85;1.05;;;;;;;10.56;69.20;100639.00;5073655;28;20053;-84
2021/09/07 05:56:51;;;;;;;0.93;0.93;;;;;;;10.61;68.93;100636.19;5054563;28;20048;-80
2021/09/07 05:59:23;;;;;;;0.60;0.60;;;;;;;10.89;68.10;100641.94;5072579;28;20076;-78
2021/09/07 06:01:49;;;;;;;1.00;1.00;;;;;;;10.94;67.18;100639.97;5070553;28;20078;-79
2021/09/07 06:04:15;;;;;;;0.50;0.50;;;;;;;10.71;68.39;100643.56;5054504;28;20462;-80
2021/09/07 06:06:41;;;;;;;1.83;1.73;;;;;;;10.72;68.03;100636.59;5037911;28;20514;-78
2021/09/07 06:09:07;;;;;;;1.08;1.08;;;;;;;10.76;68.08;100639.00;5054221;28;20068;-80
2021/09/07 06:11:33;;;;;;;4.63;1.33;;;;;;;10.96;67.26;100643.38;5053698;28;20044;-78
2021/09/07 06:14:11;;;;;;;0.50;0.50;;;;;;;11.09;67.27;100633.22;5072211;28;20130;-81
2021/09/07 06:18:10;;;;;;;0.93;0.93;;;;;;;11.00;67.08;100644.91;5054480;28;20044;-81
2021/09/07 06:20:43;;;;;;;0.90;0.90;;;;;;;11.45;65.52;100639.41;5061712;28;20163;-78
2021/09/07 06:23:09;;;;;;;1.30;1.30;;;;;;;12.51;61.28;100632.50;5053967;28;20106;-78
2021/09/07 06:25:38;;;;;;;1.63;1.63;;;;;;;13.40;59.31;100621.75;5053871;28;20048;-79
2021/09/07 06:28:04;;;;;;;0.90;0.90;;;;;;;13.70;57.32;100616.59;5053387;28;20053;-78
2021/09/07 06:30:30;;;;;;;1.50;1.50;;;;;;;14.31;55.78;100608.69;5071465;28;20509;-78
2021/09/07 06:32:58;;;;;;;1.67;0.70;;;;;;;13.38;57.46;100615.72;5071369;28;20098;-78
2021/09/07 06:35:24;;;;;;;0.85;0.85;;;;;;;12.48;59.62;100616.94;5070934;28;20049;-79
2021/09/07 06:37:50;;;;;;;1.63;1.63;;;;;;;13.08;58.71;100617.34;5036606;28;20103;-78
2021/09/07 06:40:17;;;;;;;1.10;1.10;;;;;;;13.54;56.90;100616.59;5053815;28;20055;-80
2021/09/07 06:42:43;;;;;;;0.73;0.73;;;;;;;13.42;56.79;100609.38;5068723;28;20060;-82
2021/09/07 06:45:09;;;;;;;9.10;1.05;;;;;;;13.33;57.08;100617.75;5036950;28;20092;-73
2021/09/07 06:47:35;;;;;;;3.75;1.05;;;;;;;13.34;56.66;100619.44;5071098;28;20132;-76
2021/09/07 06:50:02;;;;;;;0.95;0.95;;;;;;;13.42;56.74;100614.63;5030870;28;20044;-73
2021/09/07 06:52:29;;;;;;;2.05;1.70;;;;;;;13.76;55.92;100612.78;5070593;28;20060;-76
2021/09/07 06:54:55;;;;;;;2.00;1.90;;;;;;;14.04;55.21;100605.03;5070999;28;20111;-75
2021/09/07 06:57:21;;;;;;;0.88;0.88;;;;;;;13.64;55.72;100605.59;5069395;28;20757;-73
2021/09/07 06:59:47;;;;;;;0.70;0.70;;;;;;;13.90;55.85;100608.44;5052534;28;20049;-74
2021/09/07 07:02:13;;;;;;;1.30;1.20;;;;;;;13.72;56.44;100614.72;5052140;28;20463;-74
2021/09/07 07:04:38;;;;;;;0.50;0.50;;;;;;;13.77;55.49;100604.81;5069192;28;20481;-75
2021/09/07 07:07:04;;;;;;;2.03;1.85;;;;;;;13.91;55.13;100609.28;5069248;28;20060;-74
2021/09/07 07:09:30;;;;;;;2.25;1.33;;;;;;;13.88;54.67;100601.56;5067871;28;20068;-76
2021/09/07 07:11:56;;;;;;;0.88;0.88;;;;;;;13.82;54.57;100604.53;5069222;28;20066;-73
2021/09/07 07:14:22;;;;;;;0.60;0.60;;;;;;;14.19;53.45;100598.91;5069823;28;20417;-74
2021/09/07 07:16:48;;;;;;;1.00;1.00;;;;;;;14.94;52.01;100584.81;5069278;28;20462;-73
2021/09/07 07:19:15;;;;;;;0.98;0.98;;;;;;;14.87;52.19;100594.00;5069369;28;20051;-74
2021/09/07 07:21:41;;;;;;;0.30;0.30;;;;;;;14.03;53.59;100611.22;5069074;28;20133;-75
2021/09/07 07:24:08;;;;;;;0.50;0.50;;;;;;;13.80;54.43;100601.19;5069410;28;20850;-74
2021/09/07 07:26:34;;;;;;;1.23;1.23;;;;;;;13.54;54.89;100595.59;5069219;28;20559;-74
2021/09/07 07:29:00;;;;;;;0.70;0.70;;;;;;;13.84;55.07;100605.31;5068494;28;20091;-74
2021/09/07 07:31:27;;;;;;;0.40;0.40;;;;;;;13.74;54.81;100606.78;5065625;28;20430;-73
2021/09/07 07:33:53;;;;;;;0.95;0.95;;;;;;;13.85;55.49;100599.97;5068226;28;20118;-73
2021/09/07 07:36:19;;;;;;;0.55;0.55;;;;;;;13.44;55.30;100604.91;5075344;28;20502;-73
2021/09/07 07:38:45;;;;;;;1.10;1.02;;;;;;;13.47;55.70;100590.78;5051940;28;20049;-73
2021/09/07 07:41:11;;;;;;;4.18;1.45;;;;;;;13.43;55.08;100591.88;5061836;28;20056;-73
2021/09/07 07:43:44;;;;;;;0.57;0.57;;;;;;;13.42;55.18;100603.28;5075570;28;20107;-74
2021/09/07 07:46:11;;;;;;;1.02;1.02;;;;;;;13.36;55.77;100599.22;5075934;28;20067;-74
2021/09/07 07:48:40;;;;;;;0.75;0.75;;;;;;;13.30;55.67;100588.22;5071682;28;20075;-74
2021/09/07 07:51:09;;;;;;;1.08;0.98;;;;;;;13.11;56.73;100605.88;5077585;28;20048;-74
2021/09/07 07:53:36;;;;;;;0.40;0.40;;;;;;;13.19;57.52;100607.13;5077767;28;20044;-73
2021/09/07 07:56:02;;;;;;;0.70;0.70;;;;;;;13.11;56.00;100606.72;5068000;28;20106;-73
2021/09/07 07:58:29;;;;;;;1.45;1.02;;;;;;;12.99;56.63;100591.59;5068002;28;20041;-73
2021/09/07 08:00:55;;;;;;;0.77;0.77;;;;;;;12.98;56.78;100598.63;5073231;28;20425;-73
2021/09/07 08:03:21;;;;;;;0.40;0.40;;;;;;;12.81;56.25;100603.03;5047360;28;20048;-71
2021/09/07 08:05:47;;;;;;;0.82;0.82;;;;;;;12.72;57.16;100598.28;5069142;28;20059;-74
2021/09/07 08:08:13;;;;;;;0.63;0.63;;;;;;;12.63;56.28;100604.00;5052968;28;20123;-72
2021/09/07 08:10:39;;;;;;;0.90;0.90;;;;;;;12.61;56.53;100590.97;5050060;28;20062;-72
2021/09/07 08:13:06;;;;;;;0.40;0.40;;;;;;;12.72;56.68;100599.13;5071551;28;20151;-72
2021/09/07 08:15:32;;;;;;;0.40;0.40;;;;;;;12.68;56.26;100583.66;5070073;28;20056;-75
2021/09/07 08:17:58;;;;;;;0.80;0.80;;;;;;;12.77;56.55;100596.25;5069767;28;20056;-72
2021/09/07 08:20:42;;;;;;;0.65;0.65;;;;;;;12.66;56.61;100578.50;5051562;28;20048;-74
2021/09/07 08:23:08;;;;;;;0.40;0.40;;;;;;;12.73;56.18;100587.72;5068229;28;20050;-75
2021/09/07 08:25:34;;;;;;;0.60;0.60;;;;;;;12.73;56.78;100589.50;5068387;28;20052;-73
2021/09/07 08:28:00;;;;;;;0.40;0.40;;;;;;;12.85;57.10;100594.09;5068506;28;20044;-74
2021/09/07 08:30:27;;;;;;;0.38;0.38;;;;;;;12.77;56.65;100596.25;5035378;28;20143;-73
2021/09/07 08:32:52;;;;;;;1.92;1.77;;;;;;;12.79;57.09;100578.72;5050093;28;20045;-74
2021/09/07 08:35:18;;;;;;;0.43;0.43;;;;;;;12.61;57.52;100585.75;5050413;28;20041;-75
2021/09/07 08:37:44;;;;;;;0.70;0.70;;;;;;;12.68;57.19;100586.25;5050192;28;20053;-75
2021/09/07 08:40:10;;;;;;;0.60;0.60;;;;;;;12.78;57.37;100572.63;5068380;28;20048;-75
2021/09/07 08:42:37;;;;;;;0.40;0.40;;;;;;;12.85;56.95;100588.88;5050227;28;20052;-74
2021/09/07 08:45:03;;;;;;;0.82;0.82;;;;;;;12.88;56.75;100579.06;5068234;28;20044;-72
2021/09/07 08:47:29;;;;;;;1.00;1.00;;;;;;;12.92;56.50;100583.22;5068397;28;20074;-74
2021/09/07 08:49:56;;;;;;;1.10;1.10;;;;;;;12.91;57.04;100583.28;5068021;28;20052;-75
2021/09/07 08:52:22;;;;;;;1.23;0.68;;;;;;;12.86;56.76;100587.94;5050464;28;20151;-76
2021/09/07 08:54:49;;;;;;;0.77;0.77;;;;;;;13.00;57.32;100582.81;5067915;28;20112;-72
2021/09/07 08:57:15;;;;;;;0.60;0.60;;;;;;;13.03;57.24;100582.63;5032525;28;20044;-72
2021/09/07 08:59:41;;;;;;;0.75;0.75;;;;;;;13.07;57.04;100584.16;5068043;28;20585;-73
2021/09/07 09:02:12;;;;;;;0.65;0.65;;;;;;;13.05;56.99;100580.81;5068470;28;20048;-72
2021/09/07 09:04:38;;;;;;;;;;;;;;;13.09;57.55;100587.59;5050818;28;20403;-73
2021/09/07 09:07:04;;;;;;;0.80;0.80;;;;;;;12.93;56.84;100576.19;5050482;28;19931;-74
2021/09/07 09:09:39;;;;;;;0.50;0.50;;;;;;;12.89;57.42;100578.13;5030357;28;20144;-75
2021/09/07 09:12:07;;;;;;;0.80;0.80;;;;;;;12.90;56.82;100592.94;5030526;28;20052;-74
2021/09/07 09:14:40;;;;;;;0.80;0.80;;;;;;;12.92;57.54;100591.09;5048022;28;20124;-74
2021/09/07 09:17:32;;;;;;;1.42;1.08;;;;;;;13.09;57.24;100587.59;5047758;28;20049;-74
2021/09/07 09:20:19;;;;;;;0.40;0.40;;;;;;;13.01;57.07;100579.25;5010722;28;20064;-72
2021/09/07 09:22:50;;;;;;;1.05;1.05;;;;;;;13.18;56.97;100579.25;5032409;28;20049;-73
2021/09/07 09:25:24;;;;;;;1.65;1.38;;;;;;;13.13;57.51;100581.25;5048075;28;20049;-73
2021/09/07 09:27:56;;;;;;;0.82;0.82;;;;;;;13.20;57.48;100590.50;5047672;28;20076;-76
2021/09/07 09:30:46;;;;;;;2.83;1.55;;;;;;;13.09;57.52;100592.00;5029742;28;20057;-72
2021/09/07 09:33:14;;;;;;;0.47;0.47;;;;;;;12.78;57.66;100553.41;5063729;28;20053;-72
2021/09/07 09:35:56;;;;;;;0.70;0.70;;;;;;;12.91;58.08;100575.44;5051553;28;20131;-72
2021/09/07 09:38:33;;;;;;;2.13;2.03;;;;;;;13.01;58.46;100589.75;5071607;28;20053;-71
2021/09/07 09:41:03;;;;;;;0.75;0.75;;;;;;;12.93;58.17;100576.19;5070145;28;20048;-73
2021/09/07 09:43:38;;;;;;;0.80;0.80;;;;;;;12.76;58.34;100569.22;5053500;28;20052;-74
2021/09/07 09:46:29;;;;;;;0.60;0.60;;;;;;;12.65;59.75;100584.66;5050371;28;20652;-72
2021/09/07 09:49:13;;;;;;;0.88;0.88;;;;;;;12.61;60.14;100579.66;5051201;28;20110;-71
2021/09/07 09:51:40;;;;;;;0.50;0.50;;;;;;;12.57;59.57;100583.34;5050804;28;20132;-72
2021/09/07 09:54:06;;;;;;;0.35;0.35;;;;;;;12.60;60.02;100584.03;5033467;28;20140;-73
2021/09/07 09:56:32;;;;;;;0.77;0.65;;;;;;;12.60;59.26;100593.69;5033800;28;20139;-72
2021/09/07 09:58:58;;;;;;;0.93;0.90;;;;;;;12.67;59.67;100584.56;5048919;28;20045;-73
2021/09/07 10:01:25;;;;;;;1.10;1.10;;;;;;;12.61;59.17;100574.41;5051063;28;20080;-72
2021/09/07 10:03:51;;;;;;;0.98;0.65;;;;;;;12.57;59.92;100583.34;5032877;28;20053;-74
2021/09/07 10:06:18;;;;;;;0.90;0.90;;;;;;;12.54;60.01;100585.19;5051311;28;20055;-72
2021/09/07 10:08:44;;;;;;;1.65;0.90;;;;;;;12.58;60.22;100595.53;5050112;28;20048;-72
2021/09/07 10:11:30;;;;;;;31.08;1.70;;;;;;;12.66;59.92;100588.13;5056571;28;20048;-78
2021/09/07 10:13:59;;;;;;;0.50;0.50;;;;;;;12.73;59.94;100592.13;5052042;28;20072;-71
2021/09/07 10:16:29;;;;;;;0.85;0.85;;;;;;;12.76;60.40;100599.84;5037241;28;20048;-73
2021/09/07 10:19:08;;;;;;;0.60;0.60;;;;;;;12.70;60.17;100589.63;5053230;28;20048;-73
2021/09/07 10:26:40;;;;;;;0.60;0.60;;;;;;;12.78;59.87;100597.97;5052694;28;20044;-77
2021/09/07 10:29:31;;;;;;;0.70;0.70;;;;;;;12.80;59.63;100590.88;5036549;28;20044;-76
2021/09/07 10:31:57;;;;;;;4.32;1.13;;;;;;;12.78;59.75;100597.97;5055371;28;20075;-75
2021/09/07 10:34:26;;;;;;;0.63;0.63;;;;;;;12.70;60.19;100589.63;5072023;28;20045;-77
2021/09/07 10:37:04;;;;;;;0.85;0.85;;;;;;;12.81;60.28;100614.38;5055529;28;20110;-74
2021/09/07 10:39:40;;;;;;;0.60;0.60;;;;;;;12.84;61.34;100593.25;5071534;28;20061;-75
2021/09/07 10:42:12;;;;;;;0.98;0.85;;;;;;;12.85;60.59;100599.34;5069003;28;20044;-75
2021/09/07 10:44:41;;;;;;;10.38;2.30;;;;;;;12.96;60.32;100607.47;5069860;28;20127;-74
2021/09/07 10:47:14;;;;;;;0.80;0.80;;;;;;;12.88;60.98;100593.94;5069265;28;20059;-75
2021/09/07 10:49:47;;;;;;;0.52;0.52;;;;;;;12.85;59.69;100594.09;5069796;28;20047;-75
2021/09/07 10:52:26;;;;;;;0.70;0.70;;;;;;;12.95;60.33;100600.56;5052221;28;20059;-75
2021/09/07 10:54:52;;;;;;;0.73;0.73;;;;;;;12.84;60.29;100598.50;5051778;28;20054;-74
2021/09/07 10:57:51;;;;;;;0.68;0.68;;;;;;;12.87;60.21;100603.56;5052039;28;20048;-73
2021/09/07 11:00:23;;;;;;;0.98;0.98;;;;;;;12.88;60.76;100604.44;5011647;28;20425;-76
2021/09/07 11:02:51;;;;;;;1.35;1.25;;;;;;;12.80;60.82;100583.84;5070276;28;20524;-74
2021/09/07 11:05:37;;;;;;;0.65;0.65;;;;;;;12.82;61.02;100602.13;5070377;28;20052;-80
2021/09/07 11:08:36;;;;;;;0.95;0.95;;;;;;;12.84;61.15;100597.66;5069083;28;20506;-74
2021/09/07 11:11:26;;;;;;;7.70;1.40;;;;;;;12.97;61.27;100602.16;5069288;28;20139;-75
2021/09/07 11:13:57;;;;;;;0.47;0.47;;;;;;;12.91;60.81;100601.63;5051804;28;20144;-74
2021/09/07 11:16:23;;;;;;;0.75;0.75;;;;;;;12.95;61.57;100606.66;5036422;28;20287;-75
2021/09/07 11:18:49;;;;;;;18.67;1.05;;;;;;;13.01;61.50;100600.22;5069819;28;20048;-76
2021/09/07 11:21:16;;;;;;;1.35;1.25;;;;;;;13.13;61.71;100610.09;5037401;28;20048;-74
2021/09/07 11:23:42;;;;;;;0.80;0.80;;;;;;;12.88;61.62;100604.44;5047976;28;20053;-75
2021/09/07 11:26:10;;;;;;;1.13;1.02;;;;;;;12.93;61.99;100610.25;5049930;28;20057;-72
2021/09/07 11:28:37;;;;;;;1.02;1.02;;;;;;;12.97;62.07;100606.56;5034426;28;20117;-76
2021/09/07 11:31:04;;;;;;;2.60;1.92;;;;;;;13.10;62.03;100605.00;5052569;28;20067;-72
2021/09/07 11:33:33;;;;;;;0.70;0.70;;;;;;;13.06;61.70;100608.69;5071094;28;20052;-72
2021/09/07 11:36:09;;;;;;;0.65;0.65;;;;;;;13.03;61.85;100598.38;5068001;28;20044;-73
2021/09/07 11:38:37;;;;;;;0.88;0.88;;;;;;;13.09;61.99;100608.56;5069558;28;20098;-73
2021/09/07 11:41:04;;;;;;;5.70;0.90;;;;;;;13.31;61.29;100600.41;5069127;28;20053;-73
2021/09/07 11:43:34;;;;;;;0.65;0.65;;;;;;;13.26;61.20;100595.41;5034492;28;20045;-73
2021/09/07 11:46:09;;;;;;;1.33;1.23;;;;;;;13.38;61.74;100607.03;5068755;28;20103;-74
2021/09/07 11:48:36;;;;;;;0.88;0.88;;;;;;;13.36;62.17;100596.59;5050566;28;20521;-73
2021/09/07 11:51:05;;;;;;;0.63;0.63;;;;;;;13.43;62.03;100590.09;5050551;28;20056;-78
2021/09/07 11:53:31;;;;;;;1.17;1.17;;;;;;;13.20;61.78;100595.72;5067551;28;20510;-76
2021/09/07 11:55:57;;;;;;;0.65;0.65;;;;;;;13.21;61.76;100592.19;5068584;28;20051;-76
2021/09/07 11:58:28;;;;;;;2.15;1.15;;;;;;;13.31;62.29;100598.63;5067413;28;20048;-77
2021/09/07 12:00:58;;;;;;;;;;;;;;;13.25;62.42;100588.44;5050389;28;20053;-79
2021/09/07 12:03:52;;;;;;;0.45;0.45;;;;;;;13.24;62.40;100596.41;5068628;28;19929;-76
2021/09/07 12:06:41;;;;;;;0.50;0.50;;;;;;;13.21;63.32;100589.56;5068832;28;20095;-74
2021/09/07 12:09:13;;;;;;;2.20;1.45;;;;;;;13.22;63.35;100591.25;5068365;28;20103;-75
2021/09/07 12:11:40;;;;;;;0.43;0.43;;;;;;;13.15;63.73;100592.53;5068729;28;20057;-75